createdAt,value
2023-02-16T00:01:27.862Z,91.35
2023-02-16T00:03:59.128Z,91.13
2023-02-16T00:06:30.196Z,89.47
2023-02-16T00:08:58.444Z,95.00
2023-02-16T00:11:49.360Z,87.95
2023-02-16T00:14:17.890Z,89.35
2023-02-16T00:16:45.902Z,87.63
2023-02-16T00:19:20.654Z,80.55
2023-02-16T00:21:51.968Z,92.00
2023-02-16T00:24:20.926Z,94.20
2023-02-16T00:26:50.273Z,86.35
2023-02-16T00:29:23.985Z,87.07
2023-02-16T00:31:52.946Z,91.38
2023-02-16T00:34:33.571Z,87.93
2023-02-16T00:37:05.527Z,89.07
2023-02-16T00:39:33.937Z,85.82
2023-02-16T00:42:04.633Z,89.03
2023-02-16T00:44:37.124Z,90.85
2023-02-16T00:47:18.745Z,86.13
2023-02-16T00:49:46.926Z,80.63
2023-02-16T00:52:34.472Z,86.93
2023-02-16T00:55:04.177Z,91.70
2023-02-16T00:57:35.076Z,84.32
2023-02-16T01:00:06.445Z,94.03
2023-02-16T01:02:34.681Z,83.47
2023-02-16T01:05:02.919Z,91.28
2023-02-16T01:07:50.822Z,93.13
2023-02-16T01:10:37.439Z,88.20
2023-02-16T01:13:06.110Z,89.10
2023-02-16T01:15:36.201Z,87.55
2023-02-16T01:18:04.616Z,92.53
2023-02-16T01:20:38.456Z,84.55
2023-02-16T01:23:10.999Z,88.47
2023-02-16T01:25:43.512Z,90.20
2023-02-16T01:28:19.672Z,84.38
2023-02-16T01:30:47.908Z,91.45
2023-02-16T01:33:16.227Z,89.50
2023-02-16T01:35:44.260Z,95.90
2023-02-16T01:38:18.883Z,88.03
2023-02-16T01:40:57.559Z,90.18
2023-02-16T01:43:30.522Z,97.53
2023-02-16T01:46:03.507Z,91.78
2023-02-16T01:48:32.889Z,87.75
2023-02-16T01:51:08.179Z,90.70
2023-02-16T01:53:43.144Z,85.07
2023-02-16T01:56:33.627Z,82.63
2023-02-16T01:59:05.693Z,90.97
2023-02-16T02:01:42.636Z,87.90
2023-02-16T02:04:39.377Z,82.20
2023-02-16T02:07:08.065Z,83.70
2023-02-16T02:09:43.051Z,92.13
2023-02-16T02:12:20.172Z,90.35
2023-02-16T02:14:49.293Z,88.35
2023-02-16T02:17:21.516Z,92.53
2023-02-16T02:20:00.244Z,88.00
2023-02-16T02:23:22.024Z,83.90
2023-02-16T02:26:25.318Z,91.68
2023-02-16T02:29:07.416Z,82.50
2023-02-16T02:31:48.787Z,89.93
2023-02-16T02:34:25.253Z,83.60
2023-02-16T02:37:05.253Z,86.10
2023-02-16T02:39:41.055Z,89.10
2023-02-16T02:42:14.807Z,89.00
2023-02-16T02:44:54.436Z,86.35
2023-02-16T02:47:22.894Z,94.13
2023-02-16T02:49:52.563Z,89.25
2023-02-16T02:52:20.937Z,85.32
2023-02-16T02:55:08.226Z,89.00
2023-02-16T02:58:00.474Z,87.35
2023-02-16T03:00:44.034Z,89.15
2023-02-16T03:03:17.554Z,81.75
2023-02-16T03:05:49.109Z,86.95
2023-02-16T03:08:19.889Z,87.05
2023-02-16T03:11:08.840Z,80.20
2023-02-16T03:13:40.910Z,85.20
2023-02-16T03:16:14.439Z,88.38
2023-02-16T03:21:48.380Z,85.18
2023-02-16T03:24:39.449Z,81.80
2023-02-16T03:27:26.618Z,94.75
2023-02-16T03:29:57.059Z,77.65
2023-02-16T03:32:26.653Z,91.15
2023-02-16T03:34:54.850Z,84.13
2023-02-16T03:37:22.881Z,78.72
2023-02-16T03:40:09.810Z,83.00
2023-02-16T03:42:37.895Z,92.03
2023-02-16T03:45:07.346Z,89.68
2023-02-16T03:47:37.130Z,79.70
2023-02-16T03:50:06.358Z,89.90
2023-02-16T03:52:34.387Z,84.30
2023-02-16T03:55:02.577Z,88.78
2023-02-16T03:57:30.754Z,86.47
2023-02-16T03:59:59.448Z,84.93
2023-02-16T04:02:28.904Z,85.97
2023-02-16T04:04:58.500Z,84.55
2023-02-16T04:07:26.656Z,86.72
2023-02-16T04:09:54.743Z,87.47
2023-02-16T04:12:37.973Z,85.85
2023-02-16T04:15:08.370Z,83.07
2023-02-16T04:17:36.559Z,80.85
2023-02-16T04:20:07.110Z,86.70
2023-02-16T04:22:34.966Z,90.22
2023-02-16T04:25:03.129Z,86.18
2023-02-16T04:27:31.148Z,82.35
2023-02-16T04:29:59.550Z,85.28
2023-02-16T04:32:27.661Z,85.93
2023-02-16T04:34:55.984Z,81.47
2023-02-16T04:37:25.754Z,89.72
2023-02-16T04:39:53.841Z,89.63
2023-02-16T04:42:21.933Z,81.72
2023-02-16T04:44:50.167Z,90.50
2023-02-16T04:47:18.389Z,86.50
2023-02-16T04:49:48.091Z,82.75
2023-02-16T04:52:17.965Z,85.38
2023-02-16T04:54:47.368Z,86.35
2023-02-16T04:57:15.569Z,94.07
2023-02-16T04:59:43.536Z,82.68
2023-02-16T05:02:11.653Z,87.95
2023-02-16T05:04:39.741Z,83.90
2023-02-16T05:07:07.779Z,88.53
2023-02-16T05:09:35.845Z,94.00
2023-02-16T05:12:22.900Z,78.32
2023-02-16T05:14:51.470Z,83.63
2023-02-16T05:17:21.358Z,89.72
2023-02-16T05:19:51.118Z,86.43
2023-02-16T05:22:19.735Z,80.55
2023-02-16T05:24:48.108Z,80.35
2023-02-16T05:27:19.350Z,97.38
2023-02-16T05:29:47.761Z,81.70
2023-02-16T05:32:16.328Z,89.07
2023-02-16T05:34:45.598Z,85.28
2023-02-16T05:37:13.843Z,85.57
2023-02-16T05:39:41.853Z,80.95
2023-02-16T05:42:10.325Z,90.57
2023-02-16T05:44:39.854Z,87.03
2023-02-16T05:47:07.958Z,89.65
2023-02-16T05:49:35.981Z,92.32
2023-02-16T05:52:04.235Z,82.93
2023-02-16T05:54:32.077Z,89.72
2023-02-16T05:57:00.111Z,84.97
2023-02-16T05:59:28.104Z,84.93
2023-02-16T06:01:57.528Z,82.00
2023-02-16T06:04:25.508Z,88.55
2023-02-16T06:06:53.574Z,85.25
2023-02-16T06:09:21.758Z,89.55
2023-02-16T06:11:49.745Z,88.10
2023-02-16T06:14:20.192Z,91.18
2023-02-16T06:16:50.044Z,87.82
2023-02-16T06:19:20.688Z,87.63
2023-02-16T06:21:49.391Z,84.50
2023-02-16T06:24:19.630Z,86.38
2023-02-16T06:26:47.560Z,89.32
2023-02-16T06:29:15.423Z,83.43
2023-02-16T06:31:43.478Z,89.20
2023-02-16T06:34:11.435Z,94.85
2023-02-16T06:36:42.525Z,84.38
2023-02-16T06:39:11.298Z,100.53
2023-02-16T06:41:40.514Z,88.25
2023-02-16T06:44:12.409Z,95.28
2023-02-16T06:46:40.955Z,88.13
2023-02-16T06:49:08.990Z,95.35
2023-02-16T06:51:36.958Z,88.22
2023-02-16T06:54:06.495Z,92.07
2023-02-16T06:56:36.746Z,92.65
2023-02-16T06:59:06.602Z,84.65
2023-02-16T07:01:35.289Z,96.55
2023-02-16T07:04:03.596Z,86.88
2023-02-16T07:06:32.181Z,92.13
2023-02-16T07:09:00.725Z,88.18
2023-02-16T07:11:30.210Z,79.32
2023-02-16T07:13:58.331Z,97.75
2023-02-16T07:16:26.436Z,98.38
2023-02-16T07:18:54.854Z,100.53
2023-02-16T07:21:23.438Z,91.32
2023-02-16T07:23:52.172Z,85.75
2023-02-16T07:26:20.444Z,89.45
2023-02-16T07:28:50.063Z,90.45
2023-02-16T07:31:18.504Z,90.07
2023-02-16T07:33:47.272Z,87.32
2023-02-16T07:36:15.727Z,92.00
2023-02-16T07:38:43.875Z,91.45
2023-02-16T07:41:12.487Z,88.20
2023-02-16T07:43:42.916Z,89.13
2023-02-16T07:46:12.627Z,92.93
2023-02-16T07:48:40.672Z,96.80
2023-02-16T07:51:08.949Z,84.40
2023-02-16T07:53:37.062Z,92.43
2023-02-16T07:56:05.720Z,95.75
2023-02-16T07:58:33.789Z,85.93
2023-02-16T08:01:09.538Z,89.07
2023-02-16T08:03:39.698Z,92.40
2023-02-16T08:06:09.061Z,96.40
2023-02-16T08:08:37.760Z,91.28
2023-02-16T08:11:11.232Z,93.97
2023-02-16T08:16:11.238Z,87.45
2023-02-16T08:18:42.365Z,85.75
2023-02-16T08:21:14.838Z,91.38
2023-02-16T08:23:47.479Z,94.03
2023-02-16T08:26:17.138Z,86.00
2023-02-16T08:28:47.080Z,93.35
2023-02-16T08:31:16.980Z,103.65
2023-02-16T08:33:47.682Z,94.75
2023-02-16T08:36:19.692Z,93.47
2023-02-16T08:38:50.181Z,92.30
2023-02-16T08:41:18.642Z,93.93
2023-02-16T08:43:46.877Z,92.57
2023-02-16T08:46:15.442Z,97.45
2023-02-16T08:48:43.895Z,99.72
2023-02-16T08:51:17.677Z,94.85
2023-02-16T08:53:46.749Z,93.63
2023-02-16T08:56:16.858Z,91.75
2023-02-16T08:58:44.928Z,101.43
2023-02-16T09:01:15.400Z,103.90
2023-02-16T09:03:45.138Z,85.85
2023-02-16T09:06:16.338Z,89.78
2023-02-16T09:08:46.639Z,95.43
2023-02-16T09:11:16.625Z,91.22
2023-02-16T09:13:44.724Z,97.57
2023-02-16T09:16:15.783Z,100.47
2023-02-16T09:18:44.934Z,98.53
2023-02-16T09:21:17.102Z,93.95
2023-02-16T09:23:48.108Z,98.00
2023-02-16T09:26:17.128Z,106.18
2023-02-16T09:28:47.279Z,99.10
2023-02-16T09:31:17.165Z,95.70
2023-02-16T09:33:45.710Z,102.40
2023-02-16T09:36:15.160Z,96.07
2023-02-16T09:38:43.562Z,106.60
2023-02-16T09:41:29.293Z,90.32
2023-02-16T09:44:00.907Z,100.10
2023-02-16T09:46:31.518Z,96.65
2023-02-16T09:49:02.361Z,97.55
2023-02-16T09:51:37.417Z,97.07
2023-02-16T09:54:21.413Z,97.60
2023-02-16T09:56:56.890Z,106.45
2023-02-16T09:59:43.155Z,97.63
2023-02-16T10:02:31.014Z,96.53
2023-02-16T10:05:17.399Z,102.60
2023-02-16T10:07:57.515Z,107.75
2023-02-16T10:10:31.363Z,95.65
2023-02-16T10:13:05.848Z,95.20
2023-02-16T10:15:36.290Z,103.32
2023-02-16T10:18:10.036Z,95.70
2023-02-16T10:23:23.119Z,101.35
2023-02-16T10:25:59.337Z,105.70
2023-02-16T10:28:38.244Z,104.53
2023-02-16T10:31:15.845Z,114.15
2023-02-16T10:33:46.703Z,104.22
2023-02-16T10:36:28.959Z,106.97
2023-02-16T10:39:08.719Z,102.55
2023-02-16T10:41:42.191Z,105.13
2023-02-16T10:44:16.760Z,107.07
2023-02-16T10:46:48.981Z,99.28
2023-02-16T10:49:18.593Z,108.95
2023-02-16T10:51:50.660Z,105.30
2023-02-16T10:54:23.960Z,104.70
2023-02-16T10:56:54.493Z,102.28
2023-02-16T10:59:24.375Z,119.88
2023-02-16T11:01:54.594Z,107.38
2023-02-16T11:04:38.476Z,113.57
2023-02-16T11:07:09.285Z,102.35
2023-02-16T11:09:40.184Z,119.60
2023-02-16T11:12:28.372Z,112.90
2023-02-16T11:15:01.253Z,101.72
2023-02-16T11:17:29.820Z,110.75
2023-02-16T11:20:02.150Z,102.57
2023-02-16T11:22:33.630Z,111.88
2023-02-16T11:25:30.298Z,118.82
2023-02-16T11:28:02.038Z,113.35
2023-02-16T11:30:34.917Z,108.30
2023-02-16T11:33:07.084Z,110.88
2023-02-16T11:35:43.828Z,108.57
2023-02-16T11:38:28.510Z,107.68
2023-02-16T11:40:59.792Z,108.22
2023-02-16T11:43:30.345Z,108.18
2023-02-16T11:46:01.267Z,116.07
2023-02-16T11:48:32.668Z,115.28
2023-02-16T11:51:03.499Z,105.68
2023-02-16T11:53:34.060Z,114.28
2023-02-16T11:56:31.374Z,114.35
2023-02-16T11:59:16.912Z,107.75
2023-02-16T12:01:59.116Z,105.65
2023-02-16T12:04:48.977Z,119.18
2023-02-16T12:07:27.643Z,109.97
2023-02-16T12:10:06.211Z,118.45
2023-02-16T12:12:48.556Z,110.00
2023-02-16T12:15:25.997Z,108.82
2023-02-16T12:18:16.304Z,126.38
2023-02-16T12:20:51.912Z,124.35
2023-02-16T12:23:34.729Z,115.18
2023-02-16T12:26:16.948Z,130.18
2023-02-16T12:28:51.875Z,117.25
2023-02-16T12:31:27.062Z,110.55
2023-02-16T12:34:03.882Z,103.47
2023-02-16T12:36:47.411Z,108.88
2023-02-16T12:39:23.371Z,107.90
2023-02-16T12:42:02.005Z,95.05
2023-02-16T12:44:37.382Z,92.65
2023-02-16T12:47:12.886Z,85.90
2023-02-16T12:49:48.688Z,83.65
2023-02-16T12:52:29.492Z,87.15
2023-02-16T12:55:04.294Z,81.38
2023-02-16T12:57:33.332Z,83.63
2023-02-16T13:00:11.501Z,77.63
2023-02-16T13:02:44.603Z,87.10
2023-02-16T13:05:19.304Z,84.93
2023-02-16T13:07:50.175Z,92.88
2023-02-16T13:10:24.323Z,74.10
2023-02-16T13:12:58.956Z,79.22
2023-02-16T13:15:36.591Z,79.60
2023-02-16T13:18:11.950Z,77.65
2023-02-16T13:20:42.555Z,76.25
2023-02-16T13:23:51.276Z,73.28
2023-02-16T13:26:33.652Z,76.95
2023-02-16T13:29:23.261Z,71.95
2023-02-16T13:32:09.418Z,72.03
2023-02-16T13:35:14.744Z,67.75
2023-02-16T13:38:06.070Z,64.15
2023-02-16T13:41:06.694Z,65.30
2023-02-16T13:43:37.799Z,62.45
2023-02-16T13:46:12.268Z,64.07
2023-02-16T13:48:49.717Z,61.15
2023-02-16T13:51:20.805Z,56.60
2023-02-16T13:53:55.815Z,53.10
2023-02-16T13:56:36.268Z,53.35
2023-02-16T13:59:41.682Z,55.50
2023-02-16T14:02:14.139Z,55.30
2023-02-16T14:05:04.247Z,45.20
2023-02-16T14:07:36.013Z,43.25
2023-02-16T14:10:04.653Z,41.45
2023-02-16T14:12:38.350Z,42.88
2023-02-16T14:15:19.635Z,42.88
2023-02-16T14:17:48.000Z,52.70
2023-02-16T14:20:38.542Z,46.38
2023-02-16T14:23:09.618Z,46.30
2023-02-16T14:25:40.247Z,48.17
2023-02-16T14:28:56.204Z,41.05
2023-02-16T14:31:26.269Z,46.45
2023-02-16T14:34:04.466Z,47.50
2023-02-16T14:36:34.813Z,53.85
2023-02-16T14:39:03.656Z,45.65
2023-02-16T14:41:34.177Z,51.75
2023-02-16T14:44:34.474Z,52.05
2023-02-16T14:47:19.573Z,47.50
2023-02-16T14:50:13.310Z,42.35
2023-02-16T14:53:09.640Z,43.33
2023-02-16T14:56:10.391Z,42.28
2023-02-16T14:58:48.616Z,45.45
2023-02-16T15:01:19.143Z,46.08
2023-02-16T15:03:48.827Z,46.88
2023-02-16T15:06:27.032Z,40.88
2023-02-16T15:08:59.919Z,46.15
2023-02-16T15:11:34.258Z,47.03
2023-02-16T15:14:11.141Z,50.33
2023-02-16T15:16:42.125Z,51.28
2023-02-16T15:19:18.066Z,51.50
2023-02-16T15:21:46.160Z,47.85
2023-02-16T15:24:25.225Z,55.95
2023-02-16T15:27:01.676Z,52.70
2023-02-16T15:29:30.517Z,54.75
2023-02-16T15:32:00.553Z,60.33
2023-02-16T15:34:33.377Z,65.43
2023-02-16T15:37:03.247Z,59.90
2023-02-16T15:39:48.255Z,60.65
2023-02-16T15:42:23.714Z,63.70
2023-02-16T15:44:52.123Z,65.60
2023-02-16T15:47:24.835Z,61.75
2023-02-16T15:49:53.954Z,66.57
2023-02-16T15:52:29.842Z,63.80
2023-02-16T15:55:01.735Z,67.30
2023-02-16T15:57:32.297Z,66.40
2023-02-16T16:00:03.885Z,65.65
2023-02-16T16:02:43.745Z,68.20
2023-02-16T16:05:23.993Z,64.65
2023-02-16T16:07:52.836Z,72.03
2023-02-16T16:10:27.024Z,80.32
2023-02-16T16:12:58.970Z,76.72
2023-02-16T16:15:30.278Z,76.90
2023-02-16T16:18:00.928Z,78.05
2023-02-16T16:20:31.396Z,91.53
2023-02-16T16:23:05.038Z,92.35
2023-02-16T16:25:43.483Z,93.78
2023-02-16T16:28:14.447Z,87.78
2023-02-16T16:30:45.188Z,96.28
2023-02-16T16:33:17.113Z,106.47
2023-02-16T16:35:47.035Z,93.60
2023-02-16T16:38:27.239Z,97.95
2023-02-16T16:41:00.125Z,94.18
2023-02-16T16:43:30.878Z,97.53
2023-02-16T16:46:13.870Z,98.28
2023-02-16T16:48:45.073Z,95.30
2023-02-16T16:51:15.630Z,95.15
2023-02-16T16:53:53.318Z,94.40
2023-02-16T16:56:23.591Z,98.32
2023-02-16T16:58:53.792Z,95.18
2023-02-16T17:01:22.558Z,100.18
2023-02-16T17:03:50.707Z,94.85
2023-02-16T17:06:19.944Z,98.57
2023-02-16T17:08:49.631Z,95.57
2023-02-16T17:11:25.826Z,98.40
2023-02-16T17:13:57.084Z,103.60
2023-02-16T17:16:29.173Z,94.88
2023-02-16T17:18:57.506Z,92.22
2023-02-16T17:21:25.914Z,95.97
2023-02-16T17:23:54.324Z,101.85
2023-02-16T17:26:24.931Z,99.55
2023-02-16T17:28:53.238Z,94.93
2023-02-16T17:31:21.484Z,97.25
2023-02-16T17:33:50.174Z,88.93
2023-02-16T17:36:20.703Z,95.05
2023-02-16T17:38:50.397Z,99.82
2023-02-16T17:41:22.048Z,93.95
2023-02-16T17:43:51.932Z,96.10
2023-02-16T17:46:21.796Z,92.93
2023-02-16T17:48:53.569Z,95.78
2023-02-16T17:51:25.592Z,91.72
2023-02-16T17:53:55.304Z,89.38
2023-02-16T18:00:19.244Z,90.47
2023-02-16T18:02:48.243Z,89.75
2023-02-16T18:05:17.145Z,91.18
2023-02-16T18:07:45.460Z,89.78
2023-02-16T18:10:32.834Z,82.95
2023-02-16T18:13:01.413Z,82.15
2023-02-16T18:15:31.341Z,81.30
2023-02-16T18:17:59.698Z,81.55
2023-02-16T18:20:28.703Z,78.88
2023-02-16T18:22:57.114Z,79.30
2023-02-16T18:25:25.349Z,81.18
2023-02-16T18:27:53.847Z,78.40
2023-02-16T18:30:22.869Z,80.13
2023-02-16T18:32:52.716Z,76.20
2023-02-16T18:35:21.361Z,79.10
2023-02-16T18:37:50.943Z,79.07
2023-02-16T18:40:21.061Z,81.95
2023-02-16T18:42:49.298Z,73.07
2023-02-16T18:45:18.295Z,77.90
2023-02-16T18:47:46.390Z,78.20
2023-02-16T18:50:16.360Z,75.03
2023-02-16T18:52:45.035Z,76.65
2023-02-16T18:55:15.456Z,74.50
2023-02-16T18:57:43.954Z,79.88
2023-02-16T19:00:15.182Z,73.85
2023-02-16T19:02:44.066Z,65.43
2023-02-16T19:05:13.146Z,69.95
2023-02-16T19:07:43.814Z,68.80
2023-02-16T19:10:12.882Z,68.28
2023-02-16T19:12:41.984Z,67.00
2023-02-16T19:15:11.904Z,65.78
2023-02-16T19:17:40.268Z,62.53
2023-02-16T19:20:12.368Z,61.67
2023-02-16T19:22:41.253Z,61.75
2023-02-16T19:25:11.709Z,57.95
2023-02-16T19:27:39.867Z,59.53
2023-02-16T19:30:10.059Z,62.55
2023-02-16T19:32:41.051Z,60.67
2023-02-16T19:35:11.661Z,57.00
2023-02-16T19:37:40.528Z,60.72
2023-02-16T19:40:13.869Z,58.72
2023-02-16T19:42:42.539Z,52.45
2023-02-16T19:45:11.816Z,56.78
2023-02-16T19:47:40.427Z,54.53
2023-02-16T19:50:09.024Z,51.20
2023-02-16T19:52:37.204Z,53.80
2023-02-16T19:55:06.549Z,49.53
2023-02-16T19:57:35.912Z,51.42
2023-02-16T20:00:05.881Z,51.17
2023-02-16T20:02:40.273Z,51.13
2023-02-16T20:05:09.964Z,49.33
2023-02-16T20:07:38.079Z,47.13
2023-02-16T20:10:08.168Z,45.38
2023-02-16T20:12:37.694Z,47.60
2023-02-16T20:15:08.100Z,49.20
2023-02-16T20:17:36.417Z,48.38
2023-02-16T20:20:05.669Z,45.15
2023-02-16T20:22:34.193Z,45.80
2023-02-16T20:25:02.627Z,44.78
2023-02-16T20:27:31.282Z,40.40
2023-02-16T20:30:03.160Z,43.72
2023-02-16T20:32:31.592Z,41.75
2023-02-16T20:35:00.237Z,40.72
2023-02-16T20:37:28.357Z,40.97
2023-02-16T20:39:56.782Z,38.67
2023-02-16T20:42:24.999Z,37.83
2023-02-16T20:44:53.551Z,35.38
2023-02-16T20:47:23.201Z,37.50
2023-02-16T20:49:51.590Z,34.88
2023-02-16T20:52:20.468Z,34.72
2023-02-16T20:54:49.096Z,34.22
2023-02-16T20:57:26.482Z,31.67
2023-02-16T20:59:55.991Z,37.40
2023-02-16T21:02:26.062Z,33.72
2023-02-16T21:04:54.582Z,31.08
2023-02-16T21:07:23.166Z,30.52
2023-02-16T21:09:51.377Z,32.35
2023-02-16T21:12:19.464Z,34.65
2023-02-16T21:14:47.753Z,33.30
2023-02-16T21:17:15.751Z,29.00
2023-02-16T21:19:45.693Z,30.52
2023-02-16T21:22:13.692Z,33.75
2023-02-16T21:24:43.283Z,29.30
2023-02-16T21:27:12.711Z,27.70
2023-02-16T21:29:41.014Z,29.50
2023-02-16T21:32:09.215Z,27.38
2023-02-16T21:34:38.052Z,27.15
2023-02-16T21:37:07.977Z,26.50
2023-02-16T21:39:53.488Z,25.33
2023-02-16T21:42:21.388Z,26.00
2023-02-16T21:45:10.394Z,23.90
2023-02-16T21:47:56.014Z,25.25
2023-02-16T21:50:24.802Z,25.45
2023-02-16T21:52:54.795Z,26.08
2023-02-16T21:55:41.296Z,23.98
2023-02-16T21:58:10.751Z,25.85
2023-02-16T22:00:39.365Z,23.75
2023-02-16T22:03:08.960Z,23.15
2023-02-16T22:05:37.617Z,21.98
2023-02-16T22:08:07.627Z,22.33
2023-02-16T22:10:35.934Z,22.27
2023-02-16T22:13:04.353Z,21.90
2023-02-16T22:15:32.625Z,21.80
2023-02-16T22:18:00.559Z,20.65
2023-02-16T22:20:29.072Z,22.00
2023-02-16T22:22:57.515Z,23.17
2023-02-16T22:25:27.096Z,21.27
2023-02-16T22:27:55.169Z,22.20
2023-02-16T22:30:23.481Z,19.17
2023-02-16T22:32:51.998Z,18.67
2023-02-16T22:35:20.044Z,21.38
2023-02-16T22:37:48.119Z,20.10
2023-02-16T22:40:16.671Z,19.55
2023-02-16T22:42:46.251Z,20.92
2023-02-16T22:45:14.271Z,21.05
2023-02-16T22:47:42.825Z,19.17
2023-02-16T22:50:12.711Z,21.25
2023-02-16T22:52:40.682Z,21.05
2023-02-16T22:55:09.838Z,19.45
2023-02-16T22:57:38.947Z,21.13
2023-02-16T23:00:12.933Z,19.70
2023-02-16T23:02:41.044Z,24.02
2023-02-16T23:05:09.448Z,20.35
2023-02-16T23:07:37.566Z,21.60
2023-02-16T23:10:06.860Z,21.65
2023-02-16T23:12:35.127Z,20.45
2023-02-16T23:15:03.733Z,23.67
2023-02-16T23:17:33.416Z,21.70
2023-02-16T23:20:01.473Z,24.85
2023-02-16T23:22:30.810Z,26.35
2023-02-16T23:25:13.930Z,24.92
2023-02-16T23:27:41.983Z,30.00
2023-02-16T23:30:11.710Z,26.02
2023-02-16T23:32:41.319Z,26.00
2023-02-16T23:35:09.313Z,23.50
2023-02-16T23:37:38.502Z,27.75
2023-02-16T23:40:08.047Z,30.88
2023-02-16T23:42:36.447Z,26.85
2023-02-16T23:45:05.376Z,32.17
2023-02-16T23:47:33.433Z,29.33
2023-02-16T23:50:02.820Z,27.90
2023-02-16T23:52:30.768Z,30.88
2023-02-16T23:54:58.664Z,34.15
2023-02-16T23:57:26.551Z,35.88
2023-02-16T23:59:54.604Z,36.72
